createdAt,value
2022-08-03T00:01:33.849Z,20.50
2022-08-03T00:06:09.785Z,20.50
2022-08-03T00:10:43.956Z,20.50
2022-08-03T00:15:18.482Z,20.50
2022-08-03T00:19:52.883Z,20.50
2022-08-03T00:24:29.204Z,20.40
2022-08-03T00:29:03.855Z,20.30
2022-08-03T00:33:59.567Z,20.30
2022-08-03T00:38:32.935Z,20.30
2022-08-03T00:43:10.763Z,20.20
2022-08-03T00:47:45.101Z,20.10
2022-08-03T00:52:22.427Z,20.10
2022-08-03T00:57:00.189Z,20.00
2022-08-03T01:01:36.617Z,20.00
2022-08-03T01:06:18.494Z,20.00
2022-08-03T01:10:59.154Z,19.90
2022-08-03T01:15:39.379Z,19.90
2022-08-03T01:20:16.108Z,19.90
2022-08-03T01:25:00.964Z,19.80
2022-08-03T01:29:58.575Z,19.70
2022-08-03T01:34:37.875Z,19.60
2022-08-03T01:39:13.317Z,19.50
2022-08-03T01:44:27.726Z,19.50
2022-08-03T01:48:47.957Z,19.40
2022-08-03T01:53:23.142Z,19.40
2022-08-03T01:58:05.377Z,19.30
2022-08-03T02:02:41.880Z,19.30
2022-08-03T02:07:18.399Z,19.20
2022-08-03T02:11:54.319Z,19.10
2022-08-03T02:16:30.276Z,19.10
2022-08-03T02:21:11.083Z,19.00
2022-08-03T02:25:50.893Z,19.00
2022-08-03T02:30:30.409Z,18.90
2022-08-03T02:35:07.141Z,18.90
2022-08-03T02:39:42.916Z,18.80
2022-08-03T02:44:21.812Z,18.80
2022-08-03T02:48:59.018Z,18.70
2022-08-03T02:53:54.289Z,18.70
2022-08-03T02:58:30.221Z,18.60
2022-08-03T03:03:06.460Z,18.60
2022-08-03T03:07:51.490Z,18.60
2022-08-03T03:12:28.115Z,18.50
2022-08-03T03:17:03.575Z,18.50
2022-08-03T03:21:39.153Z,18.50
2022-08-03T03:26:15.409Z,18.50
2022-08-03T03:30:52.973Z,18.60
2022-08-03T03:35:28.693Z,18.60
2022-08-03T03:40:04.868Z,18.50
2022-08-03T03:44:39.082Z,18.50
2022-08-03T03:49:13.137Z,18.40
2022-08-03T03:53:57.855Z,18.40
2022-08-03T03:58:34.238Z,18.60
2022-08-03T04:03:08.145Z,19.00
2022-08-03T04:08:10.964Z,19.80
2022-08-03T04:12:50.235Z,20.80
2022-08-03T04:17:29.598Z,21.90
2022-08-03T04:22:07.639Z,23.00
2022-08-03T04:26:43.659Z,24.00
2022-08-03T04:31:19.176Z,24.90
2022-08-03T04:36:02.915Z,26.00
2022-08-03T04:40:41.108Z,27.00
2022-08-03T04:45:17.373Z,28.00
2022-08-03T04:49:52.163Z,28.80
2022-08-03T04:54:27.807Z,29.70
2022-08-03T04:59:01.839Z,30.60
2022-08-03T05:03:35.806Z,31.40
2022-08-03T05:08:11.178Z,32.20
2022-08-03T05:12:48.765Z,32.90
2022-08-03T05:17:22.807Z,33.60
2022-08-03T05:21:56.816Z,34.20
2022-08-03T05:26:30.887Z,34.70
2022-08-03T05:31:06.326Z,34.80
2022-08-03T05:36:01.182Z,35.10
2022-08-03T05:40:34.900Z,35.30
2022-08-03T05:45:15.723Z,35.70
2022-08-03T05:49:51.608Z,36.20
2022-08-03T05:54:25.644Z,36.80
2022-08-03T05:59:37.699Z,37.20
2022-08-03T06:04:12.556Z,37.50
2022-08-03T06:08:48.891Z,37.80
2022-08-03T06:13:23.142Z,38.20
2022-08-03T06:18:01.497Z,38.40
2022-08-03T06:22:36.860Z,38.40
2022-08-03T06:27:36.320Z,38.60
2022-08-03T06:32:10.963Z,39.10
2022-08-03T06:36:44.992Z,39.50
2022-08-03T06:41:19.182Z,39.80
2022-08-03T06:45:54.635Z,40.30
2022-08-03T06:50:28.728Z,41.10
2022-08-03T06:55:02.853Z,41.80
2022-08-03T07:00:09.450Z,42.30
2022-08-03T07:04:33.397Z,42.70
2022-08-03T07:09:07.456Z,43.30
2022-08-03T07:13:42.069Z,43.20
2022-08-03T07:18:16.105Z,43.40
2022-08-03T07:22:52.260Z,43.60
2022-08-03T07:27:28.675Z,44.10
2022-08-03T07:32:03.149Z,44.30
2022-08-03T07:36:37.128Z,44.60
2022-08-03T07:41:12.688Z,44.90
2022-08-03T07:45:46.706Z,45.10
2022-08-03T07:50:20.833Z,45.00
2022-08-03T07:54:54.951Z,44.80
2022-08-03T07:59:30.500Z,45.00
2022-08-03T08:04:24.502Z,45.30
2022-08-03T08:09:01.798Z,45.50
2022-08-03T08:13:37.512Z,45.70
2022-08-03T08:18:12.996Z,46.00
2022-08-03T08:22:47.158Z,46.20
2022-08-03T08:27:21.281Z,46.40
2022-08-03T08:31:55.304Z,46.50
2022-08-03T08:36:30.860Z,46.90
2022-08-03T08:41:05.013Z,47.10
2022-08-03T08:45:39.643Z,46.90
2022-08-03T08:50:27.277Z,46.60
2022-08-03T08:55:07.356Z,46.20
2022-08-03T08:59:48.481Z,46.00
2022-08-03T09:04:24.491Z,46.20
2022-08-03T09:08:58.560Z,46.00
2022-08-03T09:13:34.722Z,45.90
2022-08-03T09:18:09.639Z,45.70
2022-08-03T09:22:54.854Z,45.30
2022-08-03T09:27:28.985Z,44.90
2022-08-03T09:32:05.961Z,44.70
2022-08-03T09:36:42.936Z,44.90
2022-08-03T09:41:19.655Z,45.20
2022-08-03T09:46:04.494Z,45.20
2022-08-03T09:50:58.592Z,45.50
2022-08-03T09:56:36.493Z,46.20
2022-08-03T10:00:59.438Z,46.60
2022-08-03T10:05:34.103Z,46.90
2022-08-03T10:10:30.370Z,47.60
2022-08-03T10:15:05.606Z,48.10
2022-08-03T10:19:41.104Z,48.50
2022-08-03T10:24:21.286Z,48.70
2022-08-03T10:29:00.827Z,48.50
2022-08-03T10:33:51.441Z,48.30
2022-08-03T10:38:38.555Z,48.40
2022-08-03T10:43:20.505Z,48.00
2022-08-03T10:47:58.251Z,47.70
2022-08-03T10:52:40.907Z,47.70
2022-08-03T10:57:47.415Z,47.90
2022-08-03T11:02:23.189Z,48.00
2022-08-03T11:07:23.686Z,47.70
2022-08-03T11:11:57.898Z,47.70
2022-08-03T11:16:35.027Z,47.90
2022-08-03T11:21:09.062Z,47.60
2022-08-03T11:26:18.058Z,45.70
2022-08-03T11:30:52.194Z,43.60
2022-08-03T11:35:29.069Z,42.20
2022-08-03T11:40:03.579Z,41.30
2022-08-03T11:44:46.853Z,40.20
2022-08-03T11:49:23.996Z,39.60
2022-08-03T11:53:59.718Z,39.00
2022-08-03T11:59:16.587Z,38.90
2022-08-03T12:03:34.131Z,38.70
2022-08-03T12:08:09.805Z,38.10
2022-08-03T12:12:46.693Z,36.90
2022-08-03T12:17:21.732Z,35.80
2022-08-03T12:21:57.681Z,34.80
2022-08-03T12:26:44.527Z,34.10
2022-08-03T12:31:31.680Z,33.60
2022-08-03T12:36:07.901Z,33.40
2022-08-03T12:40:43.519Z,33.30
2022-08-03T12:45:21.350Z,33.20
2022-08-03T12:49:55.664Z,33.20
2022-08-03T12:54:32.600Z,33.20
2022-08-03T12:59:35.424Z,33.30
2022-08-03T13:04:27.502Z,33.10
2022-08-03T13:09:06.141Z,33.00
2022-08-03T13:13:40.558Z,33.00
2022-08-03T13:18:17.246Z,33.10
2022-08-03T13:22:52.315Z,33.10
2022-08-03T13:28:05.517Z,33.10
2022-08-03T13:32:21.357Z,33.00
2022-08-03T13:37:08.939Z,32.80
2022-08-03T13:41:43.700Z,32.80
2022-08-03T13:46:17.786Z,32.80
2022-08-03T13:50:52.004Z,32.70
2022-08-03T13:55:27.567Z,32.90
2022-08-03T14:00:01.541Z,33.00
2022-08-03T14:04:38.073Z,33.00
2022-08-03T14:09:12.154Z,33.10
2022-08-03T14:13:47.641Z,33.00
2022-08-03T14:18:28.564Z,32.90
2022-08-03T14:23:07.822Z,32.80
2022-08-03T14:27:41.998Z,32.80
2022-08-03T14:32:17.438Z,32.90
2022-08-03T14:36:51.566Z,32.80
2022-08-03T14:41:25.636Z,32.80
2022-08-03T14:46:00.915Z,32.70
2022-08-03T14:50:44.157Z,32.70
2022-08-03T14:55:21.002Z,32.80
2022-08-03T14:59:56.531Z,32.90
2022-08-03T15:04:31.357Z,32.90
2022-08-03T15:09:21.374Z,32.90
2022-08-03T15:13:57.169Z,32.90
2022-08-03T15:18:31.428Z,32.90
2022-08-03T15:23:05.479Z,32.90
2022-08-03T15:28:02.703Z,32.80
2022-08-03T15:32:34.871Z,32.70
2022-08-03T15:37:15.171Z,32.70
2022-08-03T15:41:50.690Z,32.60
2022-08-03T15:46:29.638Z,32.60
2022-08-03T15:51:03.994Z,32.70
2022-08-03T15:55:38.111Z,32.70
2022-08-03T16:00:13.516Z,32.70
2022-08-03T16:04:48.958Z,32.70
2022-08-03T16:09:42.069Z,32.90
2022-08-03T16:14:32.049Z,33.00
2022-08-03T16:19:10.411Z,33.10
2022-08-03T16:23:47.357Z,33.10
2022-08-03T16:28:22.880Z,33.10
2022-08-03T16:32:56.906Z,33.20
2022-08-03T16:37:39.424Z,33.20
2022-08-03T16:42:15.013Z,33.20
2022-08-03T16:46:49.436Z,33.20
2022-08-03T16:51:23.651Z,33.20
2022-08-03T16:55:58.028Z,33.10
2022-08-03T17:00:41.249Z,33.10
2022-08-03T17:05:16.415Z,33.10
2022-08-03T17:09:50.611Z,33.00
2022-08-03T17:14:29.291Z,33.00
2022-08-03T17:19:08.050Z,33.00
2022-08-03T17:23:51.025Z,32.90
2022-08-03T17:28:48.178Z,32.90
2022-08-03T17:33:25.968Z,32.80
2022-08-03T17:38:15.710Z,32.70
2022-08-03T17:42:51.626Z,32.50
2022-08-03T17:47:29.374Z,32.40
2022-08-03T17:52:27.709Z,32.20
2022-08-03T17:57:22.292Z,32.10
2022-08-03T18:02:30.770Z,32.00
2022-08-03T18:07:11.708Z,31.90
2022-08-03T18:11:50.808Z,31.80
2022-08-03T18:16:32.999Z,31.70
2022-08-03T18:26:06.883Z,31.40
2022-08-03T18:30:53.507Z,31.20
2022-08-03T18:35:53.542Z,31.00
2022-08-03T18:40:26.056Z,30.80
2022-08-03T18:45:14.988Z,30.60
2022-08-03T18:50:04.745Z,30.50
2022-08-03T18:55:02.652Z,30.40
2022-08-03T18:59:52.379Z,30.20
2022-08-03T19:04:32.500Z,30.10
2022-08-03T19:09:13.131Z,29.90
2022-08-03T19:13:51.283Z,29.70
2022-08-03T19:18:26.921Z,29.50
2022-08-03T19:23:01.773Z,29.30
2022-08-03T19:27:36.814Z,29.20
2022-08-03T19:32:16.440Z,29.00
2022-08-03T19:36:50.843Z,28.90
2022-08-03T19:41:31.153Z,28.70
2022-08-03T19:46:17.103Z,28.60
2022-08-03T19:50:54.250Z,28.40
2022-08-03T19:55:32.273Z,28.30
2022-08-03T20:00:11.474Z,28.20
2022-08-03T20:04:45.894Z,28.10
2022-08-03T20:09:22.325Z,28.00
2022-08-03T20:13:58.125Z,27.80
2022-08-03T20:18:37.293Z,27.70
2022-08-03T20:23:18.277Z,27.60
2022-08-03T20:28:07.272Z,27.50
2022-08-03T20:32:47.775Z,27.50
2022-08-03T20:37:22.992Z,27.30
2022-08-03T20:41:57.070Z,27.30
2022-08-03T20:46:46.466Z,27.20
2022-08-03T20:51:48.976Z,27.10
2022-08-03T20:56:22.229Z,27.10
2022-08-03T21:00:58.267Z,27.00
2022-08-03T21:05:51.315Z,26.90
2022-08-03T21:10:28.517Z,26.90
2022-08-03T21:12:57.780Z,31.50
2022-08-03T21:15:06.339Z,26.80
2022-08-03T21:19:51.974Z,26.80
2022-08-03T21:24:30.445Z,26.80
2022-08-03T21:29:04.588Z,26.70
2022-08-03T21:33:38.817Z,26.70
2022-08-03T21:38:29.893Z,26.60
2022-08-03T21:43:05.930Z,26.60
2022-08-03T21:47:42.618Z,26.40
2022-08-03T21:52:19.242Z,26.40
2022-08-03T21:56:57.932Z,26.50
2022-08-03T22:01:35.569Z,26.40
2022-08-03T22:06:19.859Z,26.30
2022-08-03T22:10:54.288Z,26.20
2022-08-03T22:15:28.464Z,26.20
2022-08-03T22:20:05.242Z,26.00
2022-08-03T22:24:39.872Z,25.80
2022-08-03T22:29:14.018Z,25.60
2022-08-03T22:33:49.650Z,25.50
2022-08-03T22:38:27.571Z,25.40
2022-08-03T22:43:02.994Z,25.40
2022-08-03T22:47:38.362Z,25.40
2022-08-03T22:52:13.430Z,25.30
2022-08-03T22:56:50.280Z,25.20
2022-08-03T23:01:27.698Z,25.10
2022-08-03T23:06:03.790Z,25.00
2022-08-03T23:10:44.946Z,24.90
2022-08-03T23:15:25.744Z,24.80
2022-08-03T23:20:04.218Z,24.70
2022-08-03T23:24:40.647Z,24.70
2022-08-03T23:29:17.134Z,24.70
2022-08-03T23:34:16.513Z,24.70
2022-08-03T23:38:51.672Z,24.70
2022-08-03T23:43:47.656Z,24.60
2022-08-03T23:48:21.983Z,24.60
2022-08-03T23:53:11.670Z,24.50
2022-08-03T23:58:01.688Z,24.40
